This is the latest recevied weather packets stored in our database for station/object AG1T-1. If no packets are shown the sender has not sent any weather packets the latest 10 day(s).
| Time | Temp. | Humidity | Pressure | Rain* | Wind** | Luminosity | Snow |
|---|---|---|---|---|---|---|---|
| 1777763403 | 22.22° C | 17% | 1020.6 hPa | 0 mm | - | 582 W/m² | - |
| 1777762804 | 22.22° C | 16% | 1020.7 hPa | 0 mm | - | 615 W/m² | - |
| 1777762203 | 22.22° C | 18% | 1020.9 hPa | 0 mm | - | 645 W/m² | - |
| 1777761603 | 22.22° C | 18% | 1021 hPa | 0 mm | - | 680 W/m² | - |
| 1777761003 | 22.22° C | 18% | 1021.2 hPa | 0 mm | - | 705 W/m² | - |
| 1777760403 | 21.67° C | 16% | 1021.3 hPa | 0 mm | - | 629 W/m² | - |
| 1777759803 | 21.67° C | 19% | 1021.5 hPa | 0 mm | - | 654 W/m² | - |
| 1777759203 | 22.22° C | 18% | 1021.6 hPa | 0 mm | - | 594 W/m² | - |
| 1777758603 | 21.67° C | 19% | 1021.7 hPa | 0 mm | - | 719 W/m² | - |
| 1777757403 | 21.11° C | 18% | 1022 hPa | 0 mm | - | 737 W/m² | - |
| 1777756803 | 21.11° C | 19% | 1022.1 hPa | 0 mm | - | 759 W/m² | - |
| 1777756203 | 21.67° C | 21% | 1022.2 hPa | 0 mm | - | 791 W/m² | - |
| 1777755603 | 21.67° C | 22% | 1022.3 hPa | 0 mm | - | 847 W/m² | - |
| 1777755003 | 21.67° C | 18% | 1022.4 hPa | 0 mm | - | 837 W/m² | - |
| 1777754403 | 21.11° C | 21% | 1022.5 hPa | 0 mm | - | 881 W/m² | - |
| 1777752603 | 21.11° C | 24% | 1022.8 hPa | 0 mm | - | 856 W/m² | - |
| 1777752003 | 21.11° C | 26% | 1022.8 hPa | 0 mm | - | 916 W/m² | - |
| 1777751403 | 21.11° C | 24% | 1022.9 hPa | 0 mm | - | 916 W/m² | - |
| 1777750803 | 20.56° C | 28% | 1023 hPa | 0 mm | - | 949 W/m² | - |
| 1777750203 | 20.56° C | 28% | 1023.2 hPa | 0 mm | - | 942 W/m² | - |
| 1777747803 | 19.44° C | 36% | 1023.7 hPa | 0 mm | - | 842 W/m² | - |
| 1777747203 | 19.44° C | 35% | 1023.9 hPa | 0 mm | - | 942 W/m² | - |
| 1777746603 | 18.89° C | 36% | 1024 hPa | 0 mm | - | 875 W/m² | - |
| 1777746003 | 17.78° C | 38% | 1024.2 hPa | 0 mm | - | 860 W/m² | - |
| 1777745403 | 17.78° C | 41% | 1024.4 hPa | 0 mm | - | 872 W/m² | - |
* Rain latest hour (hover to see other rain measurements)
** Current wind speed in m/s (hover to see current wind gust speed)